sensor_id;sensor_type;location;lat;lon;timestamp;P1;durP1;ratioP1;P2;durP2;ratioP2
41755;SDS011;27435;48.480;9.258;2023-01-19T00:01:17;13.90;;;6.17;;
41755;SDS011;27435;48.480;9.258;2023-01-19T00:03:43;17.17;;;8.07;;
41755;SDS011;27435;48.480;9.258;2023-01-19T00:06:09;11.90;;;6.47;;
41755;SDS011;27435;48.480;9.258;2023-01-19T00:08:36;15.10;;;7.10;;
41755;SDS011;27435;48.480;9.258;2023-01-19T00:11:02;13.97;;;5.80;;
41755;SDS011;27435;48.480;9.258;2023-01-19T00:13:27;14.13;;;6.60;;
41755;SDS011;27435;48.480;9.258;2023-01-19T00:15:53;17.23;;;6.17;;
41755;SDS011;27435;48.480;9.258;2023-01-19T00:18:19;13.63;;;5.70;;
41755;SDS011;27435;48.480;9.258;2023-01-19T00:20:45;12.40;;;5.80;;
41755;SDS011;27435;48.480;9.258;2023-01-19T00:23:11;16.30;;;7.60;;
41755;SDS011;27435;48.480;9.258;2023-01-19T00:25:37;21.53;;;8.47;;
41755;SDS011;27435;48.480;9.258;2023-01-19T00:28:09;17.20;;;8.30;;
41755;SDS011;27435;48.480;9.258;2023-01-19T00:30:36;16.30;;;7.10;;
41755;SDS011;27435;48.480;9.258;2023-01-19T00:33:02;14.17;;;6.97;;
41755;SDS011;27435;48.480;9.258;2023-01-19T00:35:28;12.37;;;6.27;;
41755;SDS011;27435;48.480;9.258;2023-01-19T00:37:54;14.57;;;7.13;;
41755;SDS011;27435;48.480;9.258;2023-01-19T00:40:20;17.40;;;7.23;;
41755;SDS011;27435;48.480;9.258;2023-01-19T00:42:46;17.03;;;7.77;;
41755;SDS011;27435;48.480;9.258;2023-01-19T00:45:16;16.87;;;7.73;;
41755;SDS011;27435;48.480;9.258;2023-01-19T00:47:44;11.40;;;6.17;;
41755;SDS011;27435;48.480;9.258;2023-01-19T00:50:11;13.77;;;6.77;;
41755;SDS011;27435;48.480;9.258;2023-01-19T00:52:40;11.70;;;6.00;;
41755;SDS011;27435;48.480;9.258;2023-01-19T00:55:08;11.63;;;6.30;;
41755;SDS011;27435;48.480;9.258;2023-01-19T00:57:36;13.23;;;6.03;;
41755;SDS011;27435;48.480;9.258;2023-01-19T01:00:04;13.83;;;6.90;;
41755;SDS011;27435;48.480;9.258;2023-01-19T01:02:31;14.80;;;6.40;;
41755;SDS011;27435;48.480;9.258;2023-01-19T01:04:58;13.83;;;6.77;;
41755;SDS011;27435;48.480;9.258;2023-01-19T01:07:26;21.17;;;6.80;;
41755;SDS011;27435;48.480;9.258;2023-01-19T01:09:53;16.40;;;6.00;;
41755;SDS011;27435;48.480;9.258;2023-01-19T01:12:20;14.47;;;6.30;;
41755;SDS011;27435;48.480;9.258;2023-01-19T01:14:47;12.63;;;5.77;;
41755;SDS011;27435;48.480;9.258;2023-01-19T01:17:13;12.27;;;6.23;;
41755;SDS011;27435;48.480;9.258;2023-01-19T01:19:39;13.80;;;5.97;;
41755;SDS011;27435;48.480;9.258;2023-01-19T01:22:06;12.70;;;5.97;;
41755;SDS011;27435;48.480;9.258;2023-01-19T01:24:32;18.10;;;6.50;;
41755;SDS011;27435;48.480;9.258;2023-01-19T01:26:58;12.47;;;6.57;;
41755;SDS011;27435;48.480;9.258;2023-01-19T01:29:23;13.47;;;6.03;;
41755;SDS011;27435;48.480;9.258;2023-01-19T01:31:49;15.87;;;5.83;;
41755;SDS011;27435;48.480;9.258;2023-01-19T01:34:15;13.60;;;6.90;;
41755;SDS011;27435;48.480;9.258;2023-01-19T01:36:40;13.53;;;6.80;;
41755;SDS011;27435;48.480;9.258;2023-01-19T01:39:06;17.10;;;6.27;;
41755;SDS011;27435;48.480;9.258;2023-01-19T01:41:32;13.40;;;5.93;;
41755;SDS011;27435;48.480;9.258;2023-01-19T01:43:58;12.50;;;6.30;;
41755;SDS011;27435;48.480;9.258;2023-01-19T01:46:26;15.97;;;6.67;;
41755;SDS011;27435;48.480;9.258;2023-01-19T01:49:03;14.27;;;6.67;;
41755;SDS011;27435;48.480;9.258;2023-01-19T01:51:39;12.10;;;5.67;;
41755;SDS011;27435;48.480;9.258;2023-01-19T01:56:53;12.63;;;6.27;;
41755;SDS011;27435;48.480;9.258;2023-01-19T01:59:55;16.20;;;6.63;;
41755;SDS011;27435;48.480;9.258;2023-01-19T02:02:21;13.33;;;6.60;;
41755;SDS011;27435;48.480;9.258;2023-01-19T02:05:30;11.90;;;5.37;;
41755;SDS011;27435;48.480;9.258;2023-01-19T02:07:59;15.93;;;7.03;;
41755;SDS011;27435;48.480;9.258;2023-01-19T02:10:45;12.97;;;6.40;;
41755;SDS011;27435;48.480;9.258;2023-01-19T02:13:32;14.50;;;5.30;;
41755;SDS011;27435;48.480;9.258;2023-01-19T02:15:59;13.50;;;6.47;;
41755;SDS011;27435;48.480;9.258;2023-01-19T02:18:27;14.10;;;5.77;;
41755;SDS011;27435;48.480;9.258;2023-01-19T02:20:59;12.67;;;6.57;;
41755;SDS011;27435;48.480;9.258;2023-01-19T02:23:32;14.43;;;6.53;;
41755;SDS011;27435;48.480;9.258;2023-01-19T02:26:03;14.27;;;6.63;;
41755;SDS011;27435;48.480;9.258;2023-01-19T02:28:29;14.37;;;6.70;;
41755;SDS011;27435;48.480;9.258;2023-01-19T02:30:56;12.53;;;5.93;;
41755;SDS011;27435;48.480;9.258;2023-01-19T02:33:21;11.93;;;5.60;;
41755;SDS011;27435;48.480;9.258;2023-01-19T02:35:48;15.90;;;5.97;;
41755;SDS011;27435;48.480;9.258;2023-01-19T02:38:15;10.70;;;5.50;;
41755;SDS011;27435;48.480;9.258;2023-01-19T02:40:43;16.43;;;6.20;;
41755;SDS011;27435;48.480;9.258;2023-01-19T02:43:09;12.77;;;5.77;;
41755;SDS011;27435;48.480;9.258;2023-01-19T02:45:36;11.00;;;5.83;;
41755;SDS011;27435;48.480;9.258;2023-01-19T02:48:02;12.20;;;5.60;;
41755;SDS011;27435;48.480;9.258;2023-01-19T02:50:40;13.47;;;6.33;;
41755;SDS011;27435;48.480;9.258;2023-01-19T03:07:29;14.97;;;6.50;;
41755;SDS011;27435;48.480;9.258;2023-01-19T03:10:07;18.00;;;6.30;;
41755;SDS011;27435;48.480;9.258;2023-01-19T03:12:39;9.63;;;5.43;;
41755;SDS011;27435;48.480;9.258;2023-01-19T03:15:14;11.30;;;5.47;;
41755;SDS011;27435;48.480;9.258;2023-01-19T03:17:47;11.03;;;5.47;;
41755;SDS011;27435;48.480;9.258;2023-01-19T03:20:15;12.10;;;5.20;;
41755;SDS011;27435;48.480;9.258;2023-01-19T03:22:46;15.67;;;7.07;;
41755;SDS011;27435;48.480;9.258;2023-01-19T03:25:15;16.73;;;5.83;;
41755;SDS011;27435;48.480;9.258;2023-01-19T03:27:44;15.03;;;5.60;;
41755;SDS011;27435;48.480;9.258;2023-01-19T03:30:14;14.10;;;5.30;;
41755;SDS011;27435;48.480;9.258;2023-01-19T03:32:49;13.53;;;5.57;;
41755;SDS011;27435;48.480;9.258;2023-01-19T03:35:18;10.60;;;5.17;;
41755;SDS011;27435;48.480;9.258;2023-01-19T03:37:47;11.97;;;5.10;;
41755;SDS011;27435;48.480;9.258;2023-01-19T03:40:16;16.53;;;6.07;;
41755;SDS011;27435;48.480;9.258;2023-01-19T03:42:42;15.87;;;5.80;;
41755;SDS011;27435;48.480;9.258;2023-01-19T03:45:09;13.80;;;5.60;;
41755;SDS011;27435;48.480;9.258;2023-01-19T03:47:36;12.73;;;5.70;;
41755;SDS011;27435;48.480;9.258;2023-01-19T03:50:04;14.90;;;6.23;;
41755;SDS011;27435;48.480;9.258;2023-01-19T03:52:35;13.43;;;5.87;;
41755;SDS011;27435;48.480;9.258;2023-01-19T03:55:01;16.07;;;5.83;;
41755;SDS011;27435;48.480;9.258;2023-01-19T03:57:30;11.77;;;5.63;;
41755;SDS011;27435;48.480;9.258;2023-01-19T03:59:56;17.73;;;5.93;;
41755;SDS011;27435;48.480;9.258;2023-01-19T04:02:22;17.47;;;6.20;;
41755;SDS011;27435;48.480;9.258;2023-01-19T04:04:48;12.30;;;5.67;;
41755;SDS011;27435;48.480;9.258;2023-01-19T04:07:13;16.70;;;7.10;;
41755;SDS011;27435;48.480;9.258;2023-01-19T04:09:39;15.10;;;6.70;;
41755;SDS011;27435;48.480;9.258;2023-01-19T04:12:05;17.77;;;6.70;;
41755;SDS011;27435;48.480;9.258;2023-01-19T04:14:31;11.20;;;6.33;;
41755;SDS011;27435;48.480;9.258;2023-01-19T04:16:57;13.37;;;6.30;;
41755;SDS011;27435;48.480;9.258;2023-01-19T04:19:22;14.90;;;7.17;;
41755;SDS011;27435;48.480;9.258;2023-01-19T04:21:48;27.20;;;9.60;;
41755;SDS011;27435;48.480;9.258;2023-01-19T04:24:15;39.67;;;15.77;;
41755;SDS011;27435;48.480;9.258;2023-01-19T04:26:41;41.03;;;15.13;;
41755;SDS011;27435;48.480;9.258;2023-01-19T04:29:07;62.83;;;20.13;;
41755;SDS011;27435;48.480;9.258;2023-01-19T04:31:33;38.17;;;12.47;;
41755;SDS011;27435;48.480;9.258;2023-01-19T04:33:59;20.07;;;7.50;;
41755;SDS011;27435;48.480;9.258;2023-01-19T04:36:25;13.70;;;6.23;;
41755;SDS011;27435;48.480;9.258;2023-01-19T04:38:52;44.73;;;13.57;;
41755;SDS011;27435;48.480;9.258;2023-01-19T04:41:17;34.43;;;12.13;;
41755;SDS011;27435;48.480;9.258;2023-01-19T04:43:43;54.83;;;16.03;;
41755;SDS011;27435;48.480;9.258;2023-01-19T04:46:11;46.90;;;14.50;;
41755;SDS011;27435;48.480;9.258;2023-01-19T04:48:37;56.50;;;20.00;;
41755;SDS011;27435;48.480;9.258;2023-01-19T04:51:03;64.97;;;17.83;;
41755;SDS011;27435;48.480;9.258;2023-01-19T04:53:28;52.10;;;15.83;;
41755;SDS011;27435;48.480;9.258;2023-01-19T04:55:54;32.93;;;10.07;;
41755;SDS011;27435;48.480;9.258;2023-01-19T04:58:20;22.90;;;8.67;;
41755;SDS011;27435;48.480;9.258;2023-01-19T05:00:45;23.00;;;9.37;;
41755;SDS011;27435;48.480;9.258;2023-01-19T05:03:11;19.27;;;8.73;;
41755;SDS011;27435;48.480;9.258;2023-01-19T05:05:37;23.50;;;9.60;;
41755;SDS011;27435;48.480;9.258;2023-01-19T05:08:03;22.77;;;9.33;;
41755;SDS011;27435;48.480;9.258;2023-01-19T05:10:28;21.27;;;9.50;;
41755;SDS011;27435;48.480;9.258;2023-01-19T05:12:54;11.23;;;5.33;;
41755;SDS011;27435;48.480;9.258;2023-01-19T05:15:20;15.50;;;5.27;;
41755;SDS011;27435;48.480;9.258;2023-01-19T05:17:45;11.73;;;5.10;;
41755;SDS011;27435;48.480;9.258;2023-01-19T05:20:12;11.73;;;5.83;;
41755;SDS011;27435;48.480;9.258;2023-01-19T05:22:38;14.17;;;6.20;;
41755;SDS011;27435;48.480;9.258;2023-01-19T05:25:04;12.10;;;5.10;;
41755;SDS011;27435;48.480;9.258;2023-01-19T05:27:32;12.70;;;5.07;;
41755;SDS011;27435;48.480;9.258;2023-01-19T05:29:58;10.70;;;5.47;;
41755;SDS011;27435;48.480;9.258;2023-01-19T05:32:24;9.70;;;4.97;;
41755;SDS011;27435;48.480;9.258;2023-01-19T05:34:49;15.67;;;4.70;;
41755;SDS011;27435;48.480;9.258;2023-01-19T05:37:15;10.17;;;4.40;;
41755;SDS011;27435;48.480;9.258;2023-01-19T05:39:40;12.83;;;5.20;;
41755;SDS011;27435;48.480;9.258;2023-01-19T05:42:06;9.57;;;4.50;;
41755;SDS011;27435;48.480;9.258;2023-01-19T05:44:32;11.97;;;4.07;;
41755;SDS011;27435;48.480;9.258;2023-01-19T05:46:57;16.47;;;4.20;;
41755;SDS011;27435;48.480;9.258;2023-01-19T05:49:23;11.57;;;4.87;;
41755;SDS011;27435;48.480;9.258;2023-01-19T05:51:49;11.20;;;4.20;;
41755;SDS011;27435;48.480;9.258;2023-01-19T05:54:14;10.67;;;4.60;;
41755;SDS011;27435;48.480;9.258;2023-01-19T05:56:40;10.93;;;4.23;;
41755;SDS011;27435;48.480;9.258;2023-01-19T05:59:06;16.03;;;5.43;;
41755;SDS011;27435;48.480;9.258;2023-01-19T06:01:32;31.97;;;13.77;;
41755;SDS011;27435;48.480;9.258;2023-01-19T06:03:59;27.63;;;11.07;;
41755;SDS011;27435;48.480;9.258;2023-01-19T06:06:25;19.70;;;8.13;;
41755;SDS011;27435;48.480;9.258;2023-01-19T06:08:50;14.87;;;6.13;;
41755;SDS011;27435;48.480;9.258;2023-01-19T06:11:16;29.17;;;14.10;;
41755;SDS011;27435;48.480;9.258;2023-01-19T06:13:42;24.77;;;10.93;;
41755;SDS011;27435;48.480;9.258;2023-01-19T06:16:07;15.43;;;7.93;;
41755;SDS011;27435;48.480;9.258;2023-01-19T06:18:34;14.33;;;6.53;;
41755;SDS011;27435;48.480;9.258;2023-01-19T06:21:04;10.83;;;5.73;;
41755;SDS011;27435;48.480;9.258;2023-01-19T06:23:31;12.07;;;6.03;;
41755;SDS011;27435;48.480;9.258;2023-01-19T06:25:57;10.50;;;4.87;;
41755;SDS011;27435;48.480;9.258;2023-01-19T06:28:23;9.40;;;4.60;;
41755;SDS011;27435;48.480;9.258;2023-01-19T06:30:49;7.63;;;4.10;;
41755;SDS011;27435;48.480;9.258;2023-01-19T06:33:16;10.50;;;4.83;;
41755;SDS011;27435;48.480;9.258;2023-01-19T06:35:42;10.50;;;4.80;;
41755;SDS011;27435;48.480;9.258;2023-01-19T06:38:08;10.73;;;4.73;;
41755;SDS011;27435;48.480;9.258;2023-01-19T06:40:34;10.13;;;5.20;;
41755;SDS011;27435;48.480;9.258;2023-01-19T06:43:00;13.07;;;5.03;;
41755;SDS011;27435;48.480;9.258;2023-01-19T06:45:25;13.17;;;5.10;;
41755;SDS011;27435;48.480;9.258;2023-01-19T06:47:51;14.77;;;4.87;;
41755;SDS011;27435;48.480;9.258;2023-01-19T06:50:17;13.17;;;5.90;;
41755;SDS011;27435;48.480;9.258;2023-01-19T07:07:35;0.20;;;0.20;;
41755;SDS011;27435;48.480;9.258;2023-01-19T07:10:04;0.00;;;0.00;;
41755;SDS011;27435;48.480;9.258;2023-01-19T07:12:34;0.00;;;0.00;;
41755;SDS011;27435;48.480;9.258;2023-01-19T07:14:59;0.07;;;0.07;;
41755;SDS011;27435;48.480;9.258;2023-01-19T07:17:25;0.03;;;0.03;;
41755;SDS011;27435;48.480;9.258;2023-01-19T07:19:51;0.60;;;0.43;;
41755;SDS011;27435;48.480;9.258;2023-01-19T07:22:16;12.37;;;5.67;;
41755;SDS011;27435;48.480;9.258;2023-01-19T07:24:42;15.70;;;6.73;;
41755;SDS011;27435;48.480;9.258;2023-01-19T07:27:07;12.77;;;6.00;;
41755;SDS011;27435;48.480;9.258;2023-01-19T07:29:35;11.00;;;5.83;;
41755;SDS011;27435;48.480;9.258;2023-01-19T07:32:01;18.00;;;7.07;;
41755;SDS011;27435;48.480;9.258;2023-01-19T07:34:27;15.30;;;6.83;;
41755;SDS011;27435;48.480;9.258;2023-01-19T07:36:54;15.17;;;7.57;;
41755;SDS011;27435;48.480;9.258;2023-01-19T07:39:20;14.93;;;6.87;;
41755;SDS011;27435;48.480;9.258;2023-01-19T07:41:48;17.37;;;8.57;;
41755;SDS011;27435;48.480;9.258;2023-01-19T07:44:14;20.53;;;9.67;;
41755;SDS011;27435;48.480;9.258;2023-01-19T07:46:40;20.77;;;9.27;;
41755;SDS011;27435;48.480;9.258;2023-01-19T07:49:07;22.93;;;10.10;;
41755;SDS011;27435;48.480;9.258;2023-01-19T07:51:33;20.90;;;9.33;;
41755;SDS011;27435;48.480;9.258;2023-01-19T07:53:59;25.80;;;11.00;;
41755;SDS011;27435;48.480;9.258;2023-01-19T07:56:25;21.47;;;10.70;;
41755;SDS011;27435;48.480;9.258;2023-01-19T07:58:53;21.53;;;10.37;;
41755;SDS011;27435;48.480;9.258;2023-01-19T08:01:19;23.03;;;10.80;;
41755;SDS011;27435;48.480;9.258;2023-01-19T08:03:46;20.00;;;10.53;;
41755;SDS011;27435;48.480;9.258;2023-01-19T08:06:18;17.67;;;9.27;;
41755;SDS011;27435;48.480;9.258;2023-01-19T08:08:48;18.30;;;6.27;;
41755;SDS011;27435;48.480;9.258;2023-01-19T08:11:15;13.10;;;5.33;;
41755;SDS011;27435;48.480;9.258;2023-01-19T08:13:41;12.60;;;5.00;;
41755;SDS011;27435;48.480;9.258;2023-01-19T08:16:07;11.43;;;6.07;;
41755;SDS011;27435;48.480;9.258;2023-01-19T08:18:33;17.90;;;6.97;;
41755;SDS011;27435;48.480;9.258;2023-01-19T08:20:59;9.33;;;4.60;;
41755;SDS011;27435;48.480;9.258;2023-01-19T08:23:25;11.60;;;5.80;;
41755;SDS011;27435;48.480;9.258;2023-01-19T08:25:52;19.07;;;9.40;;
41755;SDS011;27435;48.480;9.258;2023-01-19T08:28:18;21.80;;;9.33;;
41755;SDS011;27435;48.480;9.258;2023-01-19T08:30:44;22.13;;;10.73;;
41755;SDS011;27435;48.480;9.258;2023-01-19T08:33:17;24.87;;;8.63;;
41755;SDS011;27435;48.480;9.258;2023-01-19T08:35:47;17.50;;;8.40;;
41755;SDS011;27435;48.480;9.258;2023-01-19T08:38:15;13.87;;;6.47;;
41755;SDS011;27435;48.480;9.258;2023-01-19T08:40:41;14.00;;;5.63;;
41755;SDS011;27435;48.480;9.258;2023-01-19T08:43:08;12.97;;;4.60;;
41755;SDS011;27435;48.480;9.258;2023-01-19T08:45:37;19.03;;;8.30;;
41755;SDS011;27435;48.480;9.258;2023-01-19T08:48:10;12.13;;;6.03;;
41755;SDS011;27435;48.480;9.258;2023-01-19T08:50:37;16.47;;;6.70;;
41755;SDS011;27435;48.480;9.258;2023-01-19T08:53:03;10.60;;;5.03;;
41755;SDS011;27435;48.480;9.258;2023-01-19T08:55:31;11.63;;;4.80;;
41755;SDS011;27435;48.480;9.258;2023-01-19T08:57:58;15.13;;;5.23;;
41755;SDS011;27435;48.480;9.258;2023-01-19T09:00:24;23.17;;;9.90;;
41755;SDS011;27435;48.480;9.258;2023-01-19T09:02:51;19.57;;;9.33;;
41755;SDS011;27435;48.480;9.258;2023-01-19T09:05:17;20.53;;;7.83;;
41755;SDS011;27435;48.480;9.258;2023-01-19T09:07:43;14.97;;;6.23;;
41755;SDS011;27435;48.480;9.258;2023-01-19T09:10:12;17.13;;;6.87;;
41755;SDS011;27435;48.480;9.258;2023-01-19T09:12:38;21.87;;;9.67;;
41755;SDS011;27435;48.480;9.258;2023-01-19T09:15:04;25.27;;;10.37;;
41755;SDS011;27435;48.480;9.258;2023-01-19T09:17:30;17.53;;;7.70;;
41755;SDS011;27435;48.480;9.258;2023-01-19T09:19:56;17.87;;;6.97;;
41755;SDS011;27435;48.480;9.258;2023-01-19T09:22:22;13.00;;;7.03;;
41755;SDS011;27435;48.480;9.258;2023-01-19T09:24:48;13.63;;;5.43;;
41755;SDS011;27435;48.480;9.258;2023-01-19T09:27:13;16.80;;;7.37;;
41755;SDS011;27435;48.480;9.258;2023-01-19T09:29:39;14.53;;;7.00;;
41755;SDS011;27435;48.480;9.258;2023-01-19T09:32:05;17.43;;;7.83;;
41755;SDS011;27435;48.480;9.258;2023-01-19T09:34:31;14.63;;;7.43;;
41755;SDS011;27435;48.480;9.258;2023-01-19T09:36:56;11.77;;;5.20;;
41755;SDS011;27435;48.480;9.258;2023-01-19T09:39:22;14.73;;;5.53;;
41755;SDS011;27435;48.480;9.258;2023-01-19T09:41:48;14.23;;;5.63;;
41755;SDS011;27435;48.480;9.258;2023-01-19T09:44:38;21.30;;;8.70;;
41755;SDS011;27435;48.480;9.258;2023-01-19T09:47:13;19.00;;;7.70;;
41755;SDS011;27435;48.480;9.258;2023-01-19T09:49:42;18.87;;;8.70;;
41755;SDS011;27435;48.480;9.258;2023-01-19T09:52:13;17.77;;;7.80;;
41755;SDS011;27435;48.480;9.258;2023-01-19T09:55:00;21.57;;;7.70;;
41755;SDS011;27435;48.480;9.258;2023-01-19T09:57:25;15.70;;;6.78;;
41755;SDS011;27435;48.480;9.258;2023-01-19T09:59:52;18.07;;;6.30;;
41755;SDS011;27435;48.480;9.258;2023-01-19T10:02:36;13.50;;;5.63;;
41755;SDS011;27435;48.480;9.258;2023-01-19T10:05:23;17.60;;;6.93;;
41755;SDS011;27435;48.480;9.258;2023-01-19T10:10:40;13.37;;;6.20;;
41755;SDS011;27435;48.480;9.258;2023-01-19T10:13:20;13.47;;;4.67;;
41755;SDS011;27435;48.480;9.258;2023-01-19T10:18:41;7.50;;;3.60;;
41755;SDS011;27435;48.480;9.258;2023-01-19T10:21:22;6.90;;;2.70;;
41755;SDS011;27435;48.480;9.258;2023-01-19T10:24:05;4.77;;;2.33;;
41755;SDS011;27435;48.480;9.258;2023-01-19T10:26:37;5.90;;;2.40;;
41755;SDS011;27435;48.480;9.258;2023-01-19T10:29:18;5.93;;;2.67;;
41755;SDS011;27435;48.480;9.258;2023-01-19T10:34:48;6.25;;;2.20;;
41755;SDS011;27435;48.480;9.258;2023-01-19T10:39:46;5.40;;;1.93;;
41755;SDS011;27435;48.480;9.258;2023-01-19T10:42:21;4.15;;;2.13;;
41755;SDS011;27435;48.480;9.258;2023-01-19T10:44:47;4.10;;;2.27;;
41755;SDS011;27435;48.480;9.258;2023-01-19T10:47:17;6.57;;;2.30;;
41755;SDS011;27435;48.480;9.258;2023-01-19T10:49:45;9.47;;;2.63;;
41755;SDS011;27435;48.480;9.258;2023-01-19T10:54:55;5.00;;;2.43;;
41755;SDS011;27435;48.480;9.258;2023-01-19T10:57:30;4.43;;;2.33;;
41755;SDS011;27435;48.480;9.258;2023-01-19T11:00:27;7.63;;;3.50;;
41755;SDS011;27435;48.480;9.258;2023-01-19T11:05:45;7.63;;;3.33;;
41755;SDS011;27435;48.480;9.258;2023-01-19T11:08:28;9.80;;;4.00;;
41755;SDS011;27435;48.480;9.258;2023-01-19T11:10:56;7.13;;;3.87;;
41755;SDS011;27435;48.480;9.258;2023-01-19T11:13:26;5.33;;;3.30;;
41755;SDS011;27435;48.480;9.258;2023-01-19T11:15:56;8.60;;;3.57;;
41755;SDS011;27435;48.480;9.258;2023-01-19T11:18:33;9.77;;;3.70;;
41755;SDS011;27435;48.480;9.258;2023-01-19T11:21:14;12.30;;;4.30;;
41755;SDS011;27435;48.480;9.258;2023-01-19T11:23:44;9.53;;;4.27;;
41755;SDS011;27435;48.480;9.258;2023-01-19T11:28:56;12.60;;;4.67;;
41755;SDS011;27435;48.480;9.258;2023-01-19T11:33:52;13.33;;;6.47;;
41755;SDS011;27435;48.480;9.258;2023-01-19T11:36:32;16.23;;;5.90;;
41755;SDS011;27435;48.480;9.258;2023-01-19T11:39:21;10.93;;;6.43;;
41755;SDS011;27435;48.480;9.258;2023-01-19T11:41:50;12.93;;;5.93;;
41755;SDS011;27435;48.480;9.258;2023-01-19T11:44:20;10.90;;;5.10;;
41755;SDS011;27435;48.480;9.258;2023-01-19T11:47:10;13.07;;;5.23;;
41755;SDS011;27435;48.480;9.258;2023-01-19T11:52:24;11.18;;;5.60;;
41755;SDS011;27435;48.480;9.258;2023-01-19T11:57:47;10.53;;;5.20;;
41755;SDS011;27435;48.480;9.258;2023-01-19T12:03:21;9.57;;;3.97;;
41755;SDS011;27435;48.480;9.258;2023-01-19T12:05:49;10.23;;;4.53;;
41755;SDS011;27435;48.480;9.258;2023-01-19T12:08:24;9.90;;;4.13;;
41755;SDS011;27435;48.480;9.258;2023-01-19T12:10:55;11.67;;;4.37;;
41755;SDS011;27435;48.480;9.258;2023-01-19T12:13:24;9.77;;;4.60;;
41755;SDS011;27435;48.480;9.258;2023-01-19T12:16:11;8.80;;;4.97;;
41755;SDS011;27435;48.480;9.258;2023-01-19T12:18:42;10.77;;;4.63;;
41755;SDS011;27435;48.480;9.258;2023-01-19T12:21:11;9.00;;;4.43;;
41755;SDS011;27435;48.480;9.258;2023-01-19T12:26:25;8.37;;;4.47;;
41755;SDS011;27435;48.480;9.258;2023-01-19T12:28:59;11.13;;;5.00;;
41755;SDS011;27435;48.480;9.258;2023-01-19T12:31:38;10.50;;;4.40;;
41755;SDS011;27435;48.480;9.258;2023-01-19T12:37:03;9.43;;;4.87;;
41755;SDS011;27435;48.480;9.258;2023-01-19T12:39:31;15.20;;;5.20;;
41755;SDS011;27435;48.480;9.258;2023-01-19T12:42:05;10.07;;;5.17;;
41755;SDS011;27435;48.480;9.258;2023-01-19T12:44:37;9.83;;;4.73;;
41755;SDS011;27435;48.480;9.258;2023-01-19T13:00:47;19.93;;;7.43;;
41755;SDS011;27435;48.480;9.258;2023-01-19T13:02:59;18.73;;;9.50;;
41755;SDS011;27435;48.480;9.258;2023-01-19T13:15:51;10.90;;;4.70;;
41755;SDS011;27435;48.480;9.258;2023-01-19T13:18:31;10.57;;;4.60;;
41755;SDS011;27435;48.480;9.258;2023-01-19T13:21:06;10.83;;;4.40;;
41755;SDS011;27435;48.480;9.258;2023-01-19T13:26:20;9.10;;;4.87;;
41755;SDS011;27435;48.480;9.258;2023-01-19T13:29:34;5.83;;;2.90;;
41755;SDS011;27435;48.480;9.258;2023-01-19T13:31:51;8.80;;;2.87;;
41755;SDS011;27435;48.480;9.258;2023-01-19T13:34:21;7.30;;;4.10;;
41755;SDS011;27435;48.480;9.258;2023-01-19T13:36:50;7.30;;;3.93;;
41755;SDS011;27435;48.480;9.258;2023-01-19T13:41:55;9.60;;;3.97;;
41755;SDS011;27435;48.480;9.258;2023-01-19T13:44:27;22.00;;;8.27;;
41755;SDS011;27435;48.480;9.258;2023-01-19T13:47:01;14.07;;;6.07;;
41755;SDS011;27435;48.480;9.258;2023-01-19T13:49:32;16.07;;;7.07;;
41755;SDS011;27435;48.480;9.258;2023-01-19T13:52:18;33.17;;;13.70;;
41755;SDS011;27435;48.480;9.258;2023-01-19T13:54:56;11.40;;;5.10;;
41755;SDS011;27435;48.480;9.258;2023-01-19T13:57:27;6.40;;;3.00;;
41755;SDS011;27435;48.480;9.258;2023-01-19T14:03:00;4.33;;;2.60;;
41755;SDS011;27435;48.480;9.258;2023-01-19T14:05:37;5.53;;;2.20;;
41755;SDS011;27435;48.480;9.258;2023-01-19T14:10:37;10.87;;;3.90;;
41755;SDS011;27435;48.480;9.258;2023-01-19T14:13:26;11.17;;;5.00;;
41755;SDS011;27435;48.480;9.258;2023-01-19T14:16:07;4.77;;;2.30;;
41755;SDS011;27435;48.480;9.258;2023-01-19T14:18:40;6.57;;;2.83;;
41755;SDS011;27435;48.480;9.258;2023-01-19T14:21:11;5.70;;;2.83;;
41755;SDS011;27435;48.480;9.258;2023-01-19T14:23:40;4.00;;;2.23;;
41755;SDS011;27435;48.480;9.258;2023-01-19T14:31:41;5.43;;;2.63;;
41755;SDS011;27435;48.480;9.258;2023-01-19T14:34:30;7.93;;;3.33;;
41755;SDS011;27435;48.480;9.258;2023-01-19T14:37:19;6.50;;;3.33;;
41755;SDS011;27435;48.480;9.258;2023-01-19T14:39:47;5.83;;;3.00;;
41755;SDS011;27435;48.480;9.258;2023-01-19T14:42:15;11.83;;;5.20;;
41755;SDS011;27435;48.480;9.258;2023-01-19T14:44:45;15.17;;;7.23;;
41755;SDS011;27435;48.480;9.258;2023-01-19T14:47:23;10.50;;;3.07;;
41755;SDS011;27435;48.480;9.258;2023-01-19T14:50:01;7.27;;;2.93;;
41755;SDS011;27435;48.480;9.258;2023-01-19T14:52:38;8.70;;;4.50;;
41755;SDS011;27435;48.480;9.258;2023-01-19T14:55:06;7.38;;;3.50;;
41755;SDS011;27435;48.480;9.258;2023-01-19T14:57:44;9.87;;;5.20;;
41755;SDS011;27435;48.480;9.258;2023-01-19T15:00:14;10.47;;;5.40;;
41755;SDS011;27435;48.480;9.258;2023-01-19T15:02:42;6.97;;;3.33;;
41755;SDS011;27435;48.480;9.258;2023-01-19T15:05:08;6.97;;;3.37;;
41755;SDS011;27435;48.480;9.258;2023-01-19T15:07:35;6.07;;;2.80;;
41755;SDS011;27435;48.480;9.258;2023-01-19T15:10:02;6.87;;;3.33;;
41755;SDS011;27435;48.480;9.258;2023-01-19T15:12:29;5.73;;;3.03;;
41755;SDS011;27435;48.480;9.258;2023-01-19T15:14:55;8.80;;;3.57;;
41755;SDS011;27435;48.480;9.258;2023-01-19T15:17:21;5.80;;;2.83;;
41755;SDS011;27435;48.480;9.258;2023-01-19T15:19:49;5.87;;;3.40;;
41755;SDS011;27435;48.480;9.258;2023-01-19T15:22:19;6.70;;;3.03;;
41755;SDS011;27435;48.480;9.258;2023-01-19T15:24:46;7.93;;;3.00;;
41755;SDS011;27435;48.480;9.258;2023-01-19T15:27:13;6.70;;;3.50;;
41755;SDS011;27435;48.480;9.258;2023-01-19T15:29:39;8.30;;;3.43;;
41755;SDS011;27435;48.480;9.258;2023-01-19T15:32:09;7.80;;;2.63;;
41755;SDS011;27435;48.480;9.258;2023-01-19T15:34:37;9.17;;;3.40;;
41755;SDS011;27435;48.480;9.258;2023-01-19T15:37:02;6.90;;;3.20;;
41755;SDS011;27435;48.480;9.258;2023-01-19T15:39:28;11.50;;;3.57;;
41755;SDS011;27435;48.480;9.258;2023-01-19T15:41:54;6.00;;;2.87;;
41755;SDS011;27435;48.480;9.258;2023-01-19T15:44:19;8.60;;;3.33;;
41755;SDS011;27435;48.480;9.258;2023-01-19T15:46:45;8.30;;;3.87;;
41755;SDS011;27435;48.480;9.258;2023-01-19T15:49:10;6.57;;;2.70;;
41755;SDS011;27435;48.480;9.258;2023-01-19T15:51:36;12.27;;;5.13;;
41755;SDS011;27435;48.480;9.258;2023-01-19T15:54:02;5.80;;;3.20;;
41755;SDS011;27435;48.480;9.258;2023-01-19T15:56:28;8.13;;;3.50;;
41755;SDS011;27435;48.480;9.258;2023-01-19T15:58:55;6.57;;;2.93;;
41755;SDS011;27435;48.480;9.258;2023-01-19T16:01:22;9.30;;;3.37;;
41755;SDS011;27435;48.480;9.258;2023-01-19T16:03:59;14.27;;;3.83;;
41755;SDS011;27435;48.480;9.258;2023-01-19T16:06:28;15.13;;;6.70;;
41755;SDS011;27435;48.480;9.258;2023-01-19T16:08:55;8.27;;;4.67;;
41755;SDS011;27435;48.480;9.258;2023-01-19T16:11:25;15.17;;;6.90;;
41755;SDS011;27435;48.480;9.258;2023-01-19T16:13:55;11.50;;;5.87;;
41755;SDS011;27435;48.480;9.258;2023-01-19T16:16:22;9.70;;;5.37;;
41755;SDS011;27435;48.480;9.258;2023-01-19T16:18:48;9.93;;;5.80;;
41755;SDS011;27435;48.480;9.258;2023-01-19T16:21:14;10.03;;;5.50;;
41755;SDS011;27435;48.480;9.258;2023-01-19T16:23:41;11.40;;;5.23;;
41755;SDS011;27435;48.480;9.258;2023-01-19T16:26:07;12.53;;;5.50;;
41755;SDS011;27435;48.480;9.258;2023-01-19T16:28:47;8.80;;;4.00;;
41755;SDS011;27435;48.480;9.258;2023-01-19T16:31:13;8.50;;;4.47;;
41755;SDS011;27435;48.480;9.258;2023-01-19T16:33:40;10.97;;;4.80;;
41755;SDS011;27435;48.480;9.258;2023-01-19T16:36:19;7.17;;;3.80;;